createdAt,value
2023-03-05T00:00:35.886Z,13.13
2023-03-05T00:03:02.418Z,13.90
2023-03-05T00:05:29.045Z,13.38
2023-03-05T00:07:55.583Z,11.10
2023-03-05T00:10:22.130Z,10.55
2023-03-05T00:12:48.776Z,7.43
2023-03-05T00:15:15.317Z,7.47
2023-03-05T00:17:41.867Z,4.75
2023-03-05T00:20:08.833Z,11.98
2023-03-05T00:22:35.859Z,12.27
2023-03-05T00:25:03.002Z,12.00
2023-03-05T00:27:29.595Z,7.00
2023-03-05T00:29:56.157Z,7.25
2023-03-05T00:32:23.051Z,5.90
2023-03-05T00:34:50.181Z,6.70
2023-03-05T00:37:17.015Z,7.47
2023-03-05T00:39:43.521Z,5.15
2023-03-05T00:42:10.051Z,3.60
2023-03-05T00:44:36.882Z,6.55
2023-03-05T00:47:04.980Z,6.40
2023-03-05T00:49:31.601Z,2.15
2023-03-05T00:51:58.128Z,9.30
2023-03-05T00:54:24.664Z,5.47
2023-03-05T00:56:51.286Z,3.45
2023-03-05T00:59:17.836Z,3.22
2023-03-05T01:01:44.523Z,4.90
2023-03-05T01:04:11.130Z,2.42
2023-03-05T01:06:39.313Z,2.13
2023-03-05T01:09:05.971Z,2.92
2023-03-05T01:11:32.485Z,5.43
2023-03-05T01:13:59.066Z,3.58
2023-03-05T01:16:25.622Z,3.00
2023-03-05T01:18:52.120Z,3.15
2023-03-05T01:21:18.708Z,1.40
2023-03-05T01:23:45.308Z,3.85
2023-03-05T01:26:11.904Z,3.65
2023-03-05T01:28:38.735Z,3.03
2023-03-05T01:31:09.559Z,1.85
2023-03-05T01:33:36.237Z,5.95
2023-03-05T01:36:02.799Z,5.20
2023-03-05T01:38:29.327Z,5.60
2023-03-05T01:40:56.041Z,5.57
2023-03-05T01:43:25.054Z,1.85
2023-03-05T01:46:10.353Z,2.80
2023-03-05T01:48:37.206Z,1.60
2023-03-05T01:51:03.854Z,1.60
2023-03-05T01:53:30.548Z,5.18
2023-03-05T01:55:57.467Z,2.83
2023-03-05T01:58:24.610Z,6.03
2023-03-05T02:00:52.713Z,1.15
2023-03-05T02:03:19.967Z,1.73
2023-03-05T02:05:46.618Z,1.98
2023-03-05T02:08:14.963Z,1.10
2023-03-05T02:10:43.282Z,1.88
2023-03-05T02:13:15.325Z,3.08
2023-03-05T02:15:42.053Z,1.25
2023-03-05T02:18:08.864Z,1.85
2023-03-05T02:20:47.786Z,1.15
2023-03-05T02:23:14.930Z,1.27
2023-03-05T02:25:41.598Z,1.52
2023-03-05T02:28:08.173Z,0.70
2023-03-05T02:30:35.649Z,2.25
2023-03-05T02:33:02.253Z,2.20
2023-03-05T02:35:28.941Z,0.90
2023-03-05T02:37:55.650Z,1.98
2023-03-05T02:40:22.222Z,1.05
2023-03-05T02:42:49.275Z,1.15
2023-03-05T02:45:16.053Z,2.05
2023-03-05T02:47:42.854Z,3.95
2023-03-05T02:50:10.409Z,1.88
2023-03-05T02:52:37.103Z,3.90
2023-03-05T02:55:03.815Z,1.42
2023-03-05T02:57:30.373Z,2.35
2023-03-05T02:59:56.964Z,4.05
2023-03-05T03:02:23.521Z,1.65
2023-03-05T03:04:50.051Z,1.88
2023-03-05T03:07:16.603Z,1.38
2023-03-05T03:09:43.541Z,3.20
2023-03-05T03:12:10.724Z,3.40
2023-03-05T03:14:39.345Z,1.48
2023-03-05T03:17:06.746Z,1.08
2023-03-05T03:19:33.410Z,0.60
2023-03-05T03:21:59.988Z,5.35
2023-03-05T03:24:26.656Z,1.60
2023-03-05T03:26:53.193Z,1.42
2023-03-05T03:29:19.809Z,0.80
2023-03-05T03:31:46.399Z,2.83
2023-03-05T03:34:13.373Z,1.38
2023-03-05T03:36:39.966Z,0.55
2023-03-05T03:39:06.495Z,3.35
2023-03-05T03:41:33.418Z,2.63
2023-03-05T03:44:00.145Z,1.25
2023-03-05T03:46:26.822Z,0.50
2023-03-05T03:48:53.612Z,3.15
2023-03-05T03:51:20.343Z,1.70
2023-03-05T03:53:47.163Z,1.42
2023-03-05T03:56:13.770Z,1.25
2023-03-05T03:58:40.300Z,1.25
2023-03-05T04:01:06.824Z,1.42
2023-03-05T04:03:33.372Z,1.35
2023-03-05T04:06:00.053Z,1.00
2023-03-05T04:08:26.687Z,1.70
2023-03-05T04:10:53.311Z,2.33
2023-03-05T04:13:19.917Z,1.30
2023-03-05T04:15:46.606Z,1.23
2023-03-05T04:18:13.116Z,1.52
2023-03-05T04:20:39.671Z,3.03
2023-03-05T04:23:06.250Z,2.78
2023-03-05T04:25:32.768Z,1.95
2023-03-05T04:27:59.275Z,2.13
2023-03-05T04:30:25.941Z,1.70
2023-03-05T04:32:52.474Z,0.88
2023-03-05T04:35:19.366Z,1.95
2023-03-05T04:37:45.969Z,1.08
2023-03-05T04:40:12.654Z,1.08
2023-03-05T04:42:39.206Z,3.17
2023-03-05T04:45:06.872Z,2.22
2023-03-05T04:47:33.442Z,2.75
2023-03-05T04:50:00.099Z,2.30
2023-03-05T04:52:27.045Z,0.90
2023-03-05T04:54:54.569Z,2.30
2023-03-05T04:57:23.108Z,1.52
2023-03-05T04:59:50.406Z,4.00
2023-03-05T05:02:16.920Z,0.68
2023-03-05T05:04:45.320Z,1.50
2023-03-05T05:07:12.362Z,1.63
2023-03-05T05:09:39.558Z,1.92
2023-03-05T05:12:06.303Z,3.33
2023-03-05T05:14:34.035Z,1.50
2023-03-05T05:17:01.730Z,2.90
2023-03-05T05:19:28.333Z,2.00
2023-03-05T05:21:54.897Z,0.50
2023-03-05T05:24:21.397Z,2.83
2023-03-05T05:26:47.966Z,0.82
2023-03-05T05:29:14.476Z,1.23
2023-03-05T05:31:41.037Z,1.42
2023-03-05T05:34:07.612Z,2.10
2023-03-05T05:36:34.176Z,1.45
2023-03-05T05:39:00.792Z,0.82
2023-03-05T05:41:27.496Z,1.55
2023-03-05T05:43:54.197Z,1.05
2023-03-05T05:46:21.011Z,3.08
2023-03-05T05:48:48.321Z,0.85
2023-03-05T05:51:16.699Z,0.50
2023-03-05T05:53:43.740Z,0.85
2023-03-05T05:56:11.024Z,1.75
2023-03-05T05:58:38.572Z,2.42
2023-03-05T06:01:20.520Z,0.50
2023-03-05T06:03:47.141Z,1.65
2023-03-05T06:06:15.117Z,0.98
2023-03-05T06:08:41.662Z,1.42
2023-03-05T06:11:08.629Z,0.95
2023-03-05T06:13:35.720Z,0.45
2023-03-05T06:16:03.781Z,0.52
2023-03-05T06:18:30.836Z,0.57
2023-03-05T06:20:58.581Z,0.50
2023-03-05T06:23:25.865Z,0.50
2023-03-05T06:25:52.431Z,1.67
2023-03-05T06:28:19.126Z,0.68
2023-03-05T06:30:45.667Z,1.77
2023-03-05T06:33:12.207Z,1.63
2023-03-05T06:35:40.200Z,1.27
2023-03-05T06:38:07.328Z,0.90
2023-03-05T06:40:33.927Z,0.90
2023-03-05T06:43:00.593Z,0.60
2023-03-05T06:45:27.343Z,0.75
2023-03-05T06:47:54.151Z,0.73
2023-03-05T06:50:20.719Z,0.95
2023-03-05T06:52:49.052Z,0.70
2023-03-05T06:55:15.629Z,1.40
2023-03-05T06:57:42.172Z,1.65
2023-03-05T07:00:11.791Z,0.50
2023-03-05T07:02:38.449Z,1.00
2023-03-05T07:05:05.626Z,1.00
2023-03-05T07:07:32.375Z,0.50
2023-03-05T07:09:58.985Z,1.23
2023-03-05T07:12:25.518Z,1.05
2023-03-05T07:14:52.110Z,0.98
2023-03-05T07:17:18.644Z,1.23
2023-03-05T07:19:45.415Z,2.58
2023-03-05T07:22:12.166Z,0.52
2023-03-05T07:24:38.662Z,0.90
2023-03-05T07:27:05.253Z,1.15
2023-03-05T07:29:31.794Z,1.35
2023-03-05T07:31:58.331Z,0.88
2023-03-05T07:34:27.070Z,0.93
2023-03-05T07:36:53.761Z,2.08
2023-03-05T07:39:20.473Z,1.50
2023-03-05T07:41:47.821Z,0.82
2023-03-05T07:44:14.353Z,1.17
2023-03-05T07:46:41.801Z,1.08
2023-03-05T07:49:08.657Z,0.70
2023-03-05T07:51:35.316Z,2.50
2023-03-05T07:54:02.099Z,1.75
2023-03-05T07:56:32.091Z,0.95
2023-03-05T07:58:59.623Z,0.70
2023-03-05T08:01:26.383Z,1.38
2023-03-05T08:03:53.030Z,0.55
2023-03-05T08:06:19.686Z,0.30
2023-03-05T08:08:46.202Z,2.45
2023-03-05T08:11:14.068Z,0.43
2023-03-05T08:13:40.654Z,0.95
2023-03-05T08:16:08.333Z,0.95
2023-03-05T08:18:34.897Z,0.47
2023-03-05T08:21:01.800Z,0.50
2023-03-05T08:23:28.780Z,0.30
2023-03-05T08:25:55.402Z,0.88
2023-03-05T08:28:21.932Z,0.75
2023-03-05T08:30:49.524Z,0.30
2023-03-05T08:33:17.749Z,0.47
2023-03-05T08:35:44.353Z,0.30
2023-03-05T08:38:10.952Z,0.50
2023-03-05T08:40:37.462Z,0.40
2023-03-05T08:43:05.903Z,0.30
2023-03-05T08:45:32.436Z,0.30
2023-03-05T08:47:59.047Z,0.30
2023-03-05T08:50:26.112Z,0.40
2023-03-05T08:52:52.645Z,0.63
2023-03-05T08:55:19.238Z,1.55
2023-03-05T08:57:45.753Z,0.75
2023-03-05T09:00:12.833Z,0.35
2023-03-05T09:02:40.137Z,0.60
2023-03-05T09:05:06.939Z,1.70
2023-03-05T09:07:33.425Z,0.40
2023-03-05T09:09:59.908Z,0.52
2023-03-05T09:12:26.486Z,0.80
2023-03-05T09:14:54.517Z,0.95
2023-03-05T09:17:21.081Z,0.45
2023-03-05T09:19:47.592Z,1.92
2023-03-05T09:22:14.062Z,0.55
2023-03-05T09:24:40.634Z,0.88
2023-03-05T09:27:07.109Z,3.55
2023-03-05T09:29:33.601Z,1.02
2023-03-05T09:32:00.242Z,0.65
2023-03-05T09:34:27.254Z,0.52
2023-03-05T09:36:53.740Z,1.02
2023-03-05T09:39:20.270Z,0.98
2023-03-05T09:41:46.932Z,2.88
2023-03-05T09:44:32.701Z,0.73
2023-03-05T09:47:17.570Z,0.40
2023-03-05T09:50:03.949Z,0.77
2023-03-05T09:52:36.521Z,7.85
2023-03-05T09:55:03.346Z,6.80
2023-03-05T09:57:37.667Z,4.25
2023-03-05T10:00:09.390Z,6.75
2023-03-05T10:02:37.869Z,9.15
2023-03-05T10:05:24.589Z,10.15
2023-03-05T10:07:57.706Z,5.75
2023-03-05T10:10:36.325Z,7.78
2023-03-05T10:13:05.692Z,4.60
2023-03-05T10:15:35.791Z,7.20
2023-03-05T10:18:11.092Z,13.00
2023-03-05T10:20:50.390Z,7.53
2023-03-05T10:23:31.605Z,3.67
2023-03-05T10:26:00.927Z,4.43
2023-03-05T10:28:27.542Z,2.95
2023-03-05T10:31:03.125Z,1.27
2023-03-05T10:33:48.037Z,1.17
2023-03-05T10:36:15.228Z,3.17
2023-03-05T10:38:41.751Z,3.47
2023-03-05T10:41:26.216Z,1.20
2023-03-05T10:43:59.043Z,0.50
2023-03-05T10:46:31.289Z,1.03
2023-03-05T10:48:59.996Z,3.03
2023-03-05T10:51:35.156Z,0.98
2023-03-05T10:54:09.344Z,2.70
2023-03-05T10:56:37.148Z,2.45
2023-03-05T10:59:03.649Z,0.45
2023-03-05T11:01:33.727Z,2.58
2023-03-05T11:04:00.270Z,3.08
2023-03-05T11:06:27.064Z,2.10
2023-03-05T11:08:53.642Z,2.13
2023-03-05T11:11:21.114Z,1.77
2023-03-05T11:14:00.807Z,2.88
2023-03-05T11:16:28.772Z,4.82
2023-03-05T11:19:14.098Z,2.58
2023-03-05T11:21:41.095Z,5.05
2023-03-05T11:24:14.034Z,2.15
2023-03-05T11:26:54.529Z,4.93
2023-03-05T11:29:25.833Z,4.30
2023-03-05T11:31:53.018Z,1.92
2023-03-05T11:34:19.562Z,7.70
2023-03-05T11:36:55.645Z,8.88
2023-03-05T11:39:22.861Z,6.07
2023-03-05T11:42:12.100Z,6.70
2023-03-05T11:44:48.523Z,8.68
2023-03-05T11:47:17.809Z,3.88
2023-03-05T11:49:46.059Z,4.80
2023-03-05T11:52:18.561Z,3.20
2023-03-05T11:55:05.737Z,7.30
2023-03-05T11:57:41.912Z,3.65
2023-03-05T12:00:13.322Z,8.88
2023-03-05T12:02:39.973Z,6.80
2023-03-05T12:05:07.421Z,4.50
2023-03-05T12:07:39.467Z,6.15
2023-03-05T12:10:06.326Z,3.17
2023-03-05T12:12:38.756Z,10.05
2023-03-05T12:15:17.542Z,3.88
2023-03-05T12:17:49.875Z,3.75
2023-03-05T12:20:42.530Z,5.75
2023-03-05T12:23:13.628Z,2.15
2023-03-05T12:25:50.547Z,1.52
2023-03-05T12:28:29.232Z,4.60
2023-03-05T12:30:57.105Z,1.35
2023-03-05T12:33:31.778Z,2.75
2023-03-05T12:36:24.485Z,4.97
2023-03-05T12:38:54.543Z,3.97
2023-03-05T12:41:25.418Z,2.72
2023-03-05T12:44:05.434Z,4.88
2023-03-05T12:46:33.241Z,8.35
2023-03-05T12:48:59.746Z,1.60
2023-03-05T12:51:30.732Z,2.53
2023-03-05T12:53:57.342Z,7.57
2023-03-05T12:56:26.839Z,7.57
2023-03-05T12:58:54.917Z,10.50
2023-03-05T13:01:28.042Z,9.60
2023-03-05T13:04:04.216Z,7.93
2023-03-05T13:06:34.870Z,6.10
2023-03-05T13:09:03.546Z,5.63
2023-03-05T13:11:31.291Z,6.28
2023-03-05T13:13:58.006Z,3.45
2023-03-05T13:16:26.389Z,3.38
2023-03-05T13:18:53.722Z,8.88
2023-03-05T13:21:21.389Z,7.53
2023-03-05T13:23:47.914Z,6.90
2023-03-05T13:26:18.470Z,2.95
2023-03-05T13:29:02.410Z,4.35
2023-03-05T13:31:28.965Z,8.00
2023-03-05T13:34:05.577Z,4.97
2023-03-05T13:36:33.237Z,4.28
2023-03-05T13:39:00.740Z,5.45
2023-03-05T13:41:27.919Z,4.35
2023-03-05T13:43:54.418Z,3.05
2023-03-05T13:46:25.081Z,6.82
2023-03-05T13:48:51.739Z,5.70
2023-03-05T13:51:19.020Z,4.80
2023-03-05T13:53:45.881Z,11.25
2023-03-05T13:56:17.004Z,4.78
2023-03-05T13:58:56.599Z,8.88
2023-03-05T14:01:26.240Z,8.98
2023-03-05T14:03:54.150Z,10.68
2023-03-05T14:06:21.831Z,4.10
2023-03-05T14:08:53.031Z,6.95
2023-03-05T14:11:19.909Z,7.28
2023-03-05T14:13:47.385Z,4.30
2023-03-05T14:16:25.325Z,4.38
2023-03-05T14:18:57.108Z,7.57
2023-03-05T14:21:24.116Z,7.22
2023-03-05T14:23:53.076Z,9.05
2023-03-05T14:26:19.644Z,6.88
2023-03-05T14:28:59.017Z,5.40
2023-03-05T14:31:26.271Z,9.40
2023-03-05T14:33:53.837Z,2.70
2023-03-05T14:36:25.002Z,5.07
2023-03-05T14:38:52.452Z,3.17
2023-03-05T14:41:38.833Z,3.30
2023-03-05T14:44:12.746Z,6.05
2023-03-05T14:46:39.570Z,5.05
2023-03-05T14:49:07.843Z,6.78
2023-03-05T14:51:36.897Z,1.95
2023-03-05T14:54:04.312Z,2.40
2023-03-05T14:56:31.818Z,6.82
2023-03-05T14:58:58.853Z,3.50
2023-03-05T15:01:26.528Z,4.50
2023-03-05T15:03:54.276Z,3.00
2023-03-05T15:06:33.310Z,3.72
2023-03-05T15:09:00.705Z,2.05
2023-03-05T15:11:27.321Z,3.45
2023-03-05T15:13:53.858Z,4.00
2023-03-05T15:16:20.645Z,3.58
2023-03-05T15:18:47.457Z,2.55
2023-03-05T15:21:14.038Z,2.65
2023-03-05T15:23:40.598Z,2.45
2023-03-05T15:26:08.689Z,3.50
2023-03-05T15:28:38.239Z,4.80
2023-03-05T15:31:06.252Z,13.88
2023-03-05T15:33:33.040Z,4.63
2023-03-05T15:35:59.686Z,8.63
2023-03-05T15:38:26.404Z,14.20
2023-03-05T15:40:53.032Z,29.20
2023-03-05T15:43:19.761Z,5.22
2023-03-05T15:45:46.380Z,8.48
2023-03-05T15:48:12.858Z,3.85
2023-03-05T15:50:42.224Z,9.50
2023-03-05T15:53:10.264Z,8.10
2023-03-05T15:55:37.557Z,4.85
2023-03-05T16:00:31.903Z,6.15
2023-03-05T16:02:58.646Z,5.60
2023-03-05T16:05:25.284Z,4.10
2023-03-05T16:07:52.361Z,7.55
2023-03-05T16:10:22.109Z,9.40
2023-03-05T16:12:50.884Z,4.55
2023-03-05T16:15:19.147Z,3.33
2023-03-05T16:17:48.318Z,5.10
2023-03-05T16:20:15.344Z,4.30
2023-03-05T16:22:42.204Z,5.72
2023-03-05T16:25:08.945Z,4.40
2023-03-05T16:27:35.448Z,5.25
2023-03-05T16:30:03.513Z,6.03
2023-03-05T16:32:30.086Z,7.70
2023-03-05T16:34:57.561Z,8.10
2023-03-05T16:37:24.676Z,4.63
2023-03-05T16:39:51.929Z,25.75
2023-03-05T16:42:18.549Z,12.23
2023-03-05T16:44:45.528Z,12.82
2023-03-05T16:47:12.491Z,12.82
2023-03-05T16:49:39.971Z,14.40
2023-03-05T16:52:18.201Z,11.77
2023-03-05T16:54:45.952Z,17.90
2023-03-05T16:57:12.676Z,5.88
2023-03-05T16:59:39.286Z,10.43
2023-03-05T17:02:06.310Z,15.20
2023-03-05T17:04:34.083Z,8.65
2023-03-05T17:07:01.127Z,13.18
2023-03-05T17:09:28.142Z,8.80
2023-03-05T17:11:56.313Z,5.18
2023-03-05T17:14:23.433Z,7.68
2023-03-05T17:16:50.633Z,4.32
2023-03-05T17:19:18.163Z,15.00
2023-03-05T17:21:45.322Z,4.47
2023-03-05T17:24:12.528Z,5.13
2023-03-05T17:26:39.616Z,8.55
2023-03-05T17:29:06.470Z,11.52
2023-03-05T17:31:33.234Z,5.53
2023-03-05T17:34:00.532Z,11.85
2023-03-05T17:36:27.294Z,18.58
2023-03-05T17:38:54.088Z,10.35
2023-03-05T17:41:21.609Z,12.77
2023-03-05T17:43:48.265Z,7.50
2023-03-05T17:46:15.209Z,13.85
2023-03-05T17:48:42.025Z,14.30
2023-03-05T17:51:11.340Z,6.50
2023-03-05T17:53:39.508Z,3.65
2023-03-05T17:56:07.310Z,7.88
2023-03-05T17:58:34.062Z,16.48
2023-03-05T18:01:01.146Z,3.83
2023-03-05T18:03:28.608Z,7.03
2023-03-05T18:05:56.539Z,6.30
2023-03-05T18:08:24.440Z,5.18
2023-03-05T18:10:51.955Z,5.78
2023-03-05T18:13:19.091Z,6.18
2023-03-05T18:15:48.042Z,5.90
2023-03-05T18:18:16.665Z,4.47
2023-03-05T18:20:43.853Z,4.10
2023-03-05T18:23:11.549Z,4.78
2023-03-05T18:25:38.536Z,2.95
2023-03-05T18:28:15.139Z,7.65
2023-03-05T18:30:43.564Z,7.47
2023-03-05T18:33:23.953Z,5.72
2023-03-05T18:35:52.341Z,2.53
2023-03-05T18:38:19.941Z,1.95
2023-03-05T18:40:47.844Z,3.83
2023-03-05T18:43:14.440Z,7.45
2023-03-05T18:45:41.032Z,14.48
2023-03-05T18:48:07.614Z,9.80
2023-03-05T18:50:34.171Z,3.00
2023-03-05T18:53:00.806Z,2.97
2023-03-05T18:55:28.340Z,5.28
2023-03-05T18:57:55.193Z,5.43
2023-03-05T19:00:31.762Z,5.85
2023-03-05T19:02:58.918Z,7.18
2023-03-05T19:05:28.140Z,4.20
2023-03-05T19:07:55.086Z,7.55
2023-03-05T19:10:22.830Z,4.68
2023-03-05T19:12:55.569Z,6.47
2023-03-05T19:15:22.646Z,9.40
2023-03-05T19:17:49.627Z,6.70
2023-03-05T19:20:16.692Z,7.10
2023-03-05T19:22:43.258Z,7.55
2023-03-05T19:25:10.442Z,22.30
2023-03-05T19:27:37.673Z,37.53
2023-03-05T19:30:05.130Z,21.73
2023-03-05T19:32:31.766Z,21.17
2023-03-05T19:34:59.225Z,10.57
2023-03-05T19:37:25.773Z,9.52
2023-03-05T19:39:52.638Z,9.30
2023-03-05T19:42:19.476Z,8.43
2023-03-05T19:44:46.046Z,12.50
2023-03-05T19:47:12.622Z,14.35
2023-03-05T19:49:39.176Z,14.13
2023-03-05T19:52:06.332Z,9.82
2023-03-05T19:54:33.214Z,13.10
2023-03-05T19:57:00.232Z,14.32
2023-03-05T19:59:26.915Z,15.35
2023-03-05T20:01:53.931Z,22.98
2023-03-05T20:04:22.412Z,23.83
2023-03-05T20:06:49.027Z,25.33
2023-03-05T20:09:17.267Z,25.50
2023-03-05T20:11:44.816Z,29.13
2023-03-05T20:14:14.936Z,27.02
2023-03-05T20:16:44.004Z,21.45
2023-03-05T20:19:14.623Z,27.27
2023-03-05T20:21:42.756Z,20.65
2023-03-05T20:24:12.911Z,17.70
2023-03-05T20:26:41.754Z,16.50
2023-03-05T20:29:08.602Z,15.45
2023-03-05T20:31:37.424Z,20.50
2023-03-05T20:34:08.737Z,24.40
2023-03-05T20:36:35.557Z,22.52
2023-03-05T20:39:03.337Z,22.52
2023-03-05T20:41:30.263Z,18.45
2023-03-05T20:43:57.076Z,17.00
2023-03-05T20:46:27.945Z,16.00
2023-03-05T20:48:56.686Z,20.65
2023-03-05T20:51:24.415Z,21.58
2023-03-05T20:53:51.983Z,15.98
2023-03-05T20:56:18.589Z,17.42
2023-03-05T20:58:45.126Z,17.38
2023-03-05T21:01:11.862Z,13.27
2023-03-05T21:03:39.033Z,12.95
2023-03-05T21:06:05.837Z,14.30
2023-03-05T21:08:32.419Z,15.13
2023-03-05T21:10:59.342Z,14.80
2023-03-05T21:13:26.130Z,8.98
2023-03-05T21:15:52.884Z,15.50
2023-03-05T21:18:19.443Z,11.68
2023-03-05T21:20:45.961Z,10.82
2023-03-05T21:23:12.724Z,13.13
2023-03-05T21:25:39.360Z,13.20
2023-03-05T21:28:05.944Z,16.85
2023-03-05T21:30:37.609Z,13.35
2023-03-05T21:33:07.219Z,10.02
2023-03-05T21:35:35.455Z,8.75
2023-03-05T21:38:02.857Z,9.27
2023-03-05T21:40:29.533Z,14.52
2023-03-05T21:42:56.205Z,13.05
2023-03-05T21:45:24.038Z,7.75
2023-03-05T21:47:52.669Z,74.63
2023-03-05T21:50:20.186Z,22.60
2023-03-05T21:52:47.123Z,23.77
2023-03-05T21:55:14.788Z,12.00
2023-03-05T21:57:41.888Z,11.30
2023-03-05T22:00:12.713Z,10.80
2023-03-05T22:02:40.079Z,11.75
2023-03-05T22:05:07.649Z,9.80
2023-03-05T22:07:34.341Z,11.68
2023-03-05T22:10:01.166Z,12.00
2023-03-05T22:12:43.490Z,5.97
2023-03-05T22:15:10.185Z,7.28
2023-03-05T22:17:36.741Z,6.40
2023-03-05T22:20:03.709Z,7.68
2023-03-05T22:22:30.204Z,6.40
2023-03-05T22:24:56.774Z,7.07
2023-03-05T22:27:23.397Z,7.78
2023-03-05T22:29:50.090Z,6.15
2023-03-05T22:32:16.823Z,6.65
2023-03-05T22:34:43.347Z,4.95
2023-03-05T22:37:09.861Z,4.85
2023-03-05T22:39:36.417Z,5.38
2023-03-05T22:42:03.007Z,3.58
2023-03-05T22:44:29.725Z,3.53
2023-03-05T22:46:56.377Z,7.22
2023-03-05T22:49:23.018Z,5.20
2023-03-05T22:51:49.582Z,6.53
2023-03-05T22:54:16.178Z,6.28
2023-03-05T22:56:42.756Z,3.28
2023-03-05T22:59:09.311Z,6.07
2023-03-05T23:01:35.901Z,6.88
2023-03-05T23:04:08.846Z,11.13
2023-03-05T23:06:35.426Z,9.20
2023-03-05T23:09:02.030Z,7.30
2023-03-05T23:11:28.629Z,4.50
2023-03-05T23:13:55.142Z,4.53
2023-03-05T23:16:21.692Z,7.22
2023-03-05T23:18:48.374Z,9.35
2023-03-05T23:21:14.872Z,8.02
2023-03-05T23:23:41.375Z,7.68
2023-03-05T23:26:07.902Z,3.45
2023-03-05T23:28:34.440Z,6.57
2023-03-05T23:31:01.190Z,4.78
2023-03-05T23:33:27.707Z,6.28
2023-03-05T23:35:58.565Z,4.82
2023-03-05T23:38:26.258Z,5.40
2023-03-05T23:40:54.534Z,4.28
2023-03-05T23:43:22.066Z,4.68
2023-03-05T23:45:49.344Z,3.88
2023-03-05T23:48:16.597Z,4.53
2023-03-05T23:50:44.557Z,6.22
2023-03-05T23:53:15.070Z,8.18
2023-03-05T23:55:43.004Z,6.88
2023-03-05T23:58:10.064Z,4.03
